sensor_id;sensor_type;location;lat;lon;timestamp;temperature;humidity
17200;DHT22;8716;52.268;20.968;2024-02-04T00:00:38;8.30;99.90
17200;DHT22;8716;52.268;20.968;2024-02-04T00:03:07;8.30;99.90
17200;DHT22;8716;52.268;20.968;2024-02-04T00:05:35;8.30;99.90
17200;DHT22;8716;52.268;20.968;2024-02-04T00:08:05;8.30;99.90
17200;DHT22;8716;52.268;20.968;2024-02-04T00:10:34;8.20;99.90
17200;DHT22;8716;52.268;20.968;2024-02-04T00:13:03;8.20;99.90
17200;DHT22;8716;52.268;20.968;2024-02-04T00:15:31;8.20;99.90
17200;DHT22;8716;52.268;20.968;2024-02-04T00:17:59;8.20;99.90
17200;DHT22;8716;52.268;20.968;2024-02-04T00:20:28;8.30;99.90
17200;DHT22;8716;52.268;20.968;2024-02-04T00:22:59;8.20;99.90
17200;DHT22;8716;52.268;20.968;2024-02-04T00:25:28;8.20;99.90
17200;DHT22;8716;52.268;20.968;2024-02-04T00:27:57;8.20;99.90
17200;DHT22;8716;52.268;20.968;2024-02-04T00:30:25;8.20;99.90
17200;DHT22;8716;52.268;20.968;2024-02-04T00:32:53;8.20;99.90
17200;DHT22;8716;52.268;20.968;2024-02-04T00:35:22;8.20;99.90
17200;DHT22;8716;52.268;20.968;2024-02-04T00:37:50;8.10;99.90
17200;DHT22;8716;52.268;20.968;2024-02-04T00:40:19;8.10;99.90
17200;DHT22;8716;52.268;20.968;2024-02-04T00:42:48;8.10;99.90
17200;DHT22;8716;52.268;20.968;2024-02-04T00:45:17;8.10;99.90
17200;DHT22;8716;52.268;20.968;2024-02-04T00:47:45;8.10;99.90
17200;DHT22;8716;52.268;20.968;2024-02-04T00:50:16;8.00;99.90
17200;DHT22;8716;52.268;20.968;2024-02-04T00:52:44;8.00;99.90
17200;DHT22;8716;52.268;20.968;2024-02-04T00:55:12;7.90;99.90
17200;DHT22;8716;52.268;20.968;2024-02-04T00:57:41;7.90;99.90
17200;DHT22;8716;52.268;20.968;2024-02-04T01:00:11;7.90;99.90
17200;DHT22;8716;52.268;20.968;2024-02-04T01:02:40;7.90;99.90
17200;DHT22;8716;52.268;20.968;2024-02-04T01:05:08;7.90;99.90
17200;DHT22;8716;52.268;20.968;2024-02-04T01:07:36;7.90;99.90
17200;DHT22;8716;52.268;20.968;2024-02-04T01:10:06;7.80;99.90
17200;DHT22;8716;52.268;20.968;2024-02-04T01:12:36;7.90;99.90
17200;DHT22;8716;52.268;20.968;2024-02-04T01:15:05;7.90;99.90
17200;DHT22;8716;52.268;20.968;2024-02-04T01:17:35;7.90;99.90
17200;DHT22;8716;52.268;20.968;2024-02-04T01:20:04;7.80;99.90
17200;DHT22;8716;52.268;20.968;2024-02-04T01:22:32;7.90;99.90
17200;DHT22;8716;52.268;20.968;2024-02-04T01:25:00;7.80;99.90
17200;DHT22;8716;52.268;20.968;2024-02-04T01:27:36;7.80;99.90
17200;DHT22;8716;52.268;20.968;2024-02-04T01:30:06;7.80;99.90
17200;DHT22;8716;52.268;20.968;2024-02-04T01:32:36;7.80;99.90
17200;DHT22;8716;52.268;20.968;2024-02-04T01:35:07;7.80;99.90
17200;DHT22;8716;52.268;20.968;2024-02-04T01:37:36;7.90;99.90
17200;DHT22;8716;52.268;20.968;2024-02-04T01:40:06;7.80;99.90
17200;DHT22;8716;52.268;20.968;2024-02-04T01:42:34;7.80;99.90
17200;DHT22;8716;52.268;20.968;2024-02-04T01:45:03;7.90;99.90
17200;DHT22;8716;52.268;20.968;2024-02-04T01:47:32;7.80;99.90
17200;DHT22;8716;52.268;20.968;2024-02-04T01:50:03;7.80;99.90
17200;DHT22;8716;52.268;20.968;2024-02-04T01:52:33;7.80;99.90
17200;DHT22;8716;52.268;20.968;2024-02-04T01:55:03;7.80;99.90
17200;DHT22;8716;52.268;20.968;2024-02-04T01:57:32;7.80;99.90
17200;DHT22;8716;52.268;20.968;2024-02-04T02:00:03;7.80;99.90
17200;DHT22;8716;52.268;20.968;2024-02-04T02:02:32;7.80;99.90
17200;DHT22;8716;52.268;20.968;2024-02-04T02:05:04;7.80;99.90
17200;DHT22;8716;52.268;20.968;2024-02-04T02:07:32;7.80;99.90
17200;DHT22;8716;52.268;20.968;2024-02-04T02:10:00;7.80;99.90
17200;DHT22;8716;52.268;20.968;2024-02-04T02:12:37;7.80;99.90
17200;DHT22;8716;52.268;20.968;2024-02-04T02:15:11;7.80;99.90
17200;DHT22;8716;52.268;20.968;2024-02-04T02:17:45;7.80;99.90
17200;DHT22;8716;52.268;20.968;2024-02-04T02:20:21;7.80;99.90
17200;DHT22;8716;52.268;20.968;2024-02-04T02:23:06;7.80;99.90
17200;DHT22;8716;52.268;20.968;2024-02-04T02:25:36;7.80;99.90
17200;DHT22;8716;52.268;20.968;2024-02-04T02:28:06;7.80;99.90
17200;DHT22;8716;52.268;20.968;2024-02-04T02:30:35;7.80;99.90
17200;DHT22;8716;52.268;20.968;2024-02-04T02:33:04;7.80;99.90
17200;DHT22;8716;52.268;20.968;2024-02-04T02:35:33;7.70;99.90
17200;DHT22;8716;52.268;20.968;2024-02-04T02:38:07;7.70;99.90
17200;DHT22;8716;52.268;20.968;2024-02-04T02:40:43;7.70;99.90
17200;DHT22;8716;52.268;20.968;2024-02-04T02:43:12;7.70;99.90
17200;DHT22;8716;52.268;20.968;2024-02-04T02:45:42;7.80;99.90
17200;DHT22;8716;52.268;20.968;2024-02-04T02:48:11;7.80;99.90
17200;DHT22;8716;52.268;20.968;2024-02-04T02:50:39;7.70;99.90
17200;DHT22;8716;52.268;20.968;2024-02-04T02:53:08;7.80;99.90
17200;DHT22;8716;52.268;20.968;2024-02-04T02:55:36;7.70;99.90
17200;DHT22;8716;52.268;20.968;2024-02-04T02:58:05;7.70;99.90
17200;DHT22;8716;52.268;20.968;2024-02-04T03:00:33;7.80;99.90
17200;DHT22;8716;52.268;20.968;2024-02-04T03:03:01;7.90;99.90
17200;DHT22;8716;52.268;20.968;2024-02-04T03:05:30;7.90;99.90
17200;DHT22;8716;52.268;20.968;2024-02-04T03:07:59;8.00;99.90
17200;DHT22;8716;52.268;20.968;2024-02-04T03:10:27;8.00;99.90
17200;DHT22;8716;52.268;20.968;2024-02-04T03:12:55;7.90;99.90
17200;DHT22;8716;52.268;20.968;2024-02-04T03:15:25;8.00;99.90
17200;DHT22;8716;52.268;20.968;2024-02-04T03:17:53;7.90;99.90
17200;DHT22;8716;52.268;20.968;2024-02-04T03:20:21;7.90;99.90
17200;DHT22;8716;52.268;20.968;2024-02-04T03:22:50;8.00;99.90
17200;DHT22;8716;52.268;20.968;2024-02-04T03:25:18;8.00;99.90
17200;DHT22;8716;52.268;20.968;2024-02-04T03:27:47;8.00;99.90
17200;DHT22;8716;52.268;20.968;2024-02-04T03:30:16;8.00;99.90
17200;DHT22;8716;52.268;20.968;2024-02-04T03:32:45;8.00;99.90
17200;DHT22;8716;52.268;20.968;2024-02-04T03:35:14;8.10;99.90
17200;DHT22;8716;52.268;20.968;2024-02-04T03:37:43;8.10;99.90
17200;DHT22;8716;52.268;20.968;2024-02-04T03:40:12;8.10;99.90
17200;DHT22;8716;52.268;20.968;2024-02-04T03:42:40;8.10;99.90
17200;DHT22;8716;52.268;20.968;2024-02-04T03:45:09;8.10;99.90
17200;DHT22;8716;52.268;20.968;2024-02-04T03:47:37;8.00;99.90
17200;DHT22;8716;52.268;20.968;2024-02-04T03:50:08;8.10;99.90
17200;DHT22;8716;52.268;20.968;2024-02-04T03:52:36;8.10;99.90
17200;DHT22;8716;52.268;20.968;2024-02-04T03:55:05;8.10;99.90
17200;DHT22;8716;52.268;20.968;2024-02-04T03:57:33;8.10;99.90
17200;DHT22;8716;52.268;20.968;2024-02-04T04:00:01;8.20;99.90
17200;DHT22;8716;52.268;20.968;2024-02-04T04:02:37;8.10;99.90
17200;DHT22;8716;52.268;20.968;2024-02-04T04:05:10;8.10;99.90
17200;DHT22;8716;52.268;20.968;2024-02-04T04:07:39;8.10;99.90
17200;DHT22;8716;52.268;20.968;2024-02-04T04:10:08;8.10;99.90
17200;DHT22;8716;52.268;20.968;2024-02-04T04:12:37;8.10;99.90
17200;DHT22;8716;52.268;20.968;2024-02-04T04:15:06;8.10;99.90
17200;DHT22;8716;52.268;20.968;2024-02-04T04:17:34;8.10;99.90
17200;DHT22;8716;52.268;20.968;2024-02-04T04:20:04;8.20;99.90
17200;DHT22;8716;52.268;20.968;2024-02-04T04:22:33;8.10;99.90
17200;DHT22;8716;52.268;20.968;2024-02-04T04:25:02;8.10;99.90
17200;DHT22;8716;52.268;20.968;2024-02-04T04:27:30;8.10;99.90
17200;DHT22;8716;52.268;20.968;2024-02-04T04:29:58;8.20;99.90
17200;DHT22;8716;52.268;20.968;2024-02-04T04:32:26;8.20;99.90
17200;DHT22;8716;52.268;20.968;2024-02-04T04:34:55;8.10;99.90
17200;DHT22;8716;52.268;20.968;2024-02-04T04:37:23;8.10;99.90
17200;DHT22;8716;52.268;20.968;2024-02-04T04:39:55;8.10;99.90
17200;DHT22;8716;52.268;20.968;2024-02-04T04:42:23;8.10;99.90
17200;DHT22;8716;52.268;20.968;2024-02-04T04:44:52;8.10;99.90
17200;DHT22;8716;52.268;20.968;2024-02-04T04:47:23;8.10;99.90
17200;DHT22;8716;52.268;20.968;2024-02-04T04:49:51;8.10;99.90
17200;DHT22;8716;52.268;20.968;2024-02-04T04:52:19;8.00;99.90
17200;DHT22;8716;52.268;20.968;2024-02-04T04:54:50;8.00;99.90
17200;DHT22;8716;52.268;20.968;2024-02-04T04:57:19;7.90;99.90
17200;DHT22;8716;52.268;20.968;2024-02-04T04:59:48;7.90;99.90
17200;DHT22;8716;52.268;20.968;2024-02-04T05:02:16;7.90;99.90
17200;DHT22;8716;52.268;20.968;2024-02-04T05:04:44;7.80;99.90
17200;DHT22;8716;52.268;20.968;2024-02-04T05:07:14;7.80;99.90
17200;DHT22;8716;52.268;20.968;2024-02-04T05:09:43;7.80;99.90
17200;DHT22;8716;52.268;20.968;2024-02-04T05:12:12;7.80;99.90
17200;DHT22;8716;52.268;20.968;2024-02-04T05:14:41;7.70;99.90
17200;DHT22;8716;52.268;20.968;2024-02-04T05:17:10;7.70;99.90
17200;DHT22;8716;52.268;20.968;2024-02-04T05:19:40;7.70;99.90
17200;DHT22;8716;52.268;20.968;2024-02-04T05:22:08;7.60;99.90
17200;DHT22;8716;52.268;20.968;2024-02-04T05:24:37;7.60;99.90
17200;DHT22;8716;52.268;20.968;2024-02-04T05:27:05;7.60;99.90
17200;DHT22;8716;52.268;20.968;2024-02-04T05:29:34;7.50;99.90
17200;DHT22;8716;52.268;20.968;2024-02-04T05:32:04;7.50;99.90
17200;DHT22;8716;52.268;20.968;2024-02-04T05:34:32;7.50;99.90
17200;DHT22;8716;52.268;20.968;2024-02-04T05:37:01;7.50;99.90
17200;DHT22;8716;52.268;20.968;2024-02-04T05:39:29;7.40;99.90
17200;DHT22;8716;52.268;20.968;2024-02-04T05:41:58;7.40;99.90
17200;DHT22;8716;52.268;20.968;2024-02-04T05:44:26;7.30;99.90
17200;DHT22;8716;52.268;20.968;2024-02-04T05:46:54;7.40;99.90
17200;DHT22;8716;52.268;20.968;2024-02-04T05:49:24;7.30;99.90
17200;DHT22;8716;52.268;20.968;2024-02-04T05:51:52;7.20;99.90
17200;DHT22;8716;52.268;20.968;2024-02-04T05:54:20;7.20;99.90
17200;DHT22;8716;52.268;20.968;2024-02-04T05:56:49;7.20;99.90
17200;DHT22;8716;52.268;20.968;2024-02-04T05:59:17;7.20;99.90
17200;DHT22;8716;52.268;20.968;2024-02-04T06:01:46;7.20;99.90
17200;DHT22;8716;52.268;20.968;2024-02-04T06:04:14;7.20;99.90
17200;DHT22;8716;52.268;20.968;2024-02-04T06:06:43;7.20;99.90
17200;DHT22;8716;52.268;20.968;2024-02-04T06:09:12;7.20;99.90
17200;DHT22;8716;52.268;20.968;2024-02-04T06:11:44;7.10;99.90
17200;DHT22;8716;52.268;20.968;2024-02-04T06:14:12;7.10;99.90
17200;DHT22;8716;52.268;20.968;2024-02-04T06:16:40;7.10;99.90
17200;DHT22;8716;52.268;20.968;2024-02-04T06:19:09;7.10;99.90
17200;DHT22;8716;52.268;20.968;2024-02-04T06:21:40;7.10;99.90
17200;DHT22;8716;52.268;20.968;2024-02-04T06:24:10;7.10;99.90
17200;DHT22;8716;52.268;20.968;2024-02-04T06:26:39;7.20;99.90
17200;DHT22;8716;52.268;20.968;2024-02-04T06:29:08;7.10;99.90
17200;DHT22;8716;52.268;20.968;2024-02-04T06:31:36;7.00;99.90
17200;DHT22;8716;52.268;20.968;2024-02-04T06:34:05;7.10;99.90
17200;DHT22;8716;52.268;20.968;2024-02-04T06:36:34;7.00;99.90
17200;DHT22;8716;52.268;20.968;2024-02-04T06:39:02;7.10;99.90
17200;DHT22;8716;52.268;20.968;2024-02-04T06:41:32;7.10;99.90
17200;DHT22;8716;52.268;20.968;2024-02-04T06:44:02;7.10;99.90
17200;DHT22;8716;52.268;20.968;2024-02-04T06:46:31;7.10;99.90
17200;DHT22;8716;52.268;20.968;2024-02-04T06:48:59;7.00;99.90
17200;DHT22;8716;52.268;20.968;2024-02-04T06:51:28;7.10;99.90
17200;DHT22;8716;52.268;20.968;2024-02-04T06:53:59;7.10;99.90
17200;DHT22;8716;52.268;20.968;2024-02-04T06:56:28;7.10;99.90
17200;DHT22;8716;52.268;20.968;2024-02-04T06:58:58;7.10;99.90
17200;DHT22;8716;52.268;20.968;2024-02-04T07:01:26;7.10;99.90
17200;DHT22;8716;52.268;20.968;2024-02-04T07:03:55;7.10;99.90
17200;DHT22;8716;52.268;20.968;2024-02-04T07:06:23;7.10;99.90
17200;DHT22;8716;52.268;20.968;2024-02-04T07:08:51;7.20;99.90
17200;DHT22;8716;52.268;20.968;2024-02-04T07:11:19;7.20;99.90
17200;DHT22;8716;52.268;20.968;2024-02-04T07:13:47;7.20;99.90
17200;DHT22;8716;52.268;20.968;2024-02-04T07:16:16;7.20;99.90
17200;DHT22;8716;52.268;20.968;2024-02-04T07:18:45;7.20;99.90
17200;DHT22;8716;52.268;20.968;2024-02-04T07:21:13;7.20;99.90
17200;DHT22;8716;52.268;20.968;2024-02-04T07:23:41;7.20;99.90
17200;DHT22;8716;52.268;20.968;2024-02-04T07:26:09;7.20;99.90
17200;DHT22;8716;52.268;20.968;2024-02-04T07:28:39;7.30;99.90
17200;DHT22;8716;52.268;20.968;2024-02-04T07:31:07;7.30;99.90
17200;DHT22;8716;52.268;20.968;2024-02-04T07:33:37;7.50;99.90
17200;DHT22;8716;52.268;20.968;2024-02-04T07:36:06;7.50;99.90
17200;DHT22;8716;52.268;20.968;2024-02-04T07:38:34;7.50;99.90
17200;DHT22;8716;52.268;20.968;2024-02-04T07:41:03;7.60;99.90
17200;DHT22;8716;52.268;20.968;2024-02-04T07:43:31;7.60;99.90
17200;DHT22;8716;52.268;20.968;2024-02-04T07:45:59;7.70;99.90
17200;DHT22;8716;52.268;20.968;2024-02-04T07:48:31;7.70;99.90
17200;DHT22;8716;52.268;20.968;2024-02-04T07:51:01;7.80;99.90
17200;DHT22;8716;52.268;20.968;2024-02-04T07:53:29;7.90;99.90
17200;DHT22;8716;52.268;20.968;2024-02-04T07:55:59;7.80;99.90
17200;DHT22;8716;52.268;20.968;2024-02-04T07:58:29;7.80;99.90
17200;DHT22;8716;52.268;20.968;2024-02-04T08:00:58;7.80;99.90
17200;DHT22;8716;52.268;20.968;2024-02-04T08:03:26;7.80;99.90
17200;DHT22;8716;52.268;20.968;2024-02-04T08:05:55;7.80;99.90
17200;DHT22;8716;52.268;20.968;2024-02-04T08:08:29;7.80;99.90
17200;DHT22;8716;52.268;20.968;2024-02-04T08:10:57;7.80;99.90
17200;DHT22;8716;52.268;20.968;2024-02-04T08:13:27;7.80;99.90
17200;DHT22;8716;52.268;20.968;2024-02-04T08:15:56;7.80;99.90
17200;DHT22;8716;52.268;20.968;2024-02-04T08:18:24;7.80;99.90
17200;DHT22;8716;52.268;20.968;2024-02-04T08:20:53;7.80;99.90
17200;DHT22;8716;52.268;20.968;2024-02-04T08:23:21;7.70;99.90
17200;DHT22;8716;52.268;20.968;2024-02-04T08:25:50;7.70;99.90
17200;DHT22;8716;52.268;20.968;2024-02-04T08:28:19;7.70;99.90
17200;DHT22;8716;52.268;20.968;2024-02-04T08:30:47;7.70;99.90
17200;DHT22;8716;52.268;20.968;2024-02-04T08:33:15;7.70;99.90
17200;DHT22;8716;52.268;20.968;2024-02-04T08:35:45;7.60;99.90
17200;DHT22;8716;52.268;20.968;2024-02-04T08:38:13;7.60;99.90
17200;DHT22;8716;52.268;20.968;2024-02-04T08:40:41;7.60;99.90
17200;DHT22;8716;52.268;20.968;2024-02-04T08:43:11;7.70;99.90
17200;DHT22;8716;52.268;20.968;2024-02-04T08:45:39;7.70;99.90
17200;DHT22;8716;52.268;20.968;2024-02-04T08:48:07;7.70;99.90
17200;DHT22;8716;52.268;20.968;2024-02-04T08:50:36;7.70;99.90
17200;DHT22;8716;52.268;20.968;2024-02-04T08:53:04;7.70;99.90
17200;DHT22;8716;52.268;20.968;2024-02-04T08:55:32;7.70;99.90
17200;DHT22;8716;52.268;20.968;2024-02-04T08:58:03;7.70;99.90
17200;DHT22;8716;52.268;20.968;2024-02-04T09:00:32;7.60;99.90
17200;DHT22;8716;52.268;20.968;2024-02-04T09:03:01;7.70;99.90
17200;DHT22;8716;52.268;20.968;2024-02-04T09:05:30;7.60;99.90
17200;DHT22;8716;52.268;20.968;2024-02-04T09:07:58;7.60;99.90
17200;DHT22;8716;52.268;20.968;2024-02-04T09:10:26;7.70;99.90
17200;DHT22;8716;52.268;20.968;2024-02-04T09:12:55;7.70;99.90
17200;DHT22;8716;52.268;20.968;2024-02-04T09:15:23;7.70;99.90
17200;DHT22;8716;52.268;20.968;2024-02-04T09:17:53;7.70;99.90
17200;DHT22;8716;52.268;20.968;2024-02-04T09:20:22;7.70;99.90
17200;DHT22;8716;52.268;20.968;2024-02-04T09:22:50;7.70;99.90
17200;DHT22;8716;52.268;20.968;2024-02-04T09:25:18;7.80;99.90
17200;DHT22;8716;52.268;20.968;2024-02-04T09:27:47;7.80;99.90
17200;DHT22;8716;52.268;20.968;2024-02-04T09:30:15;7.90;99.90
17200;DHT22;8716;52.268;20.968;2024-02-04T09:32:44;8.00;99.90
17200;DHT22;8716;52.268;20.968;2024-02-04T09:35:14;8.00;99.90
17200;DHT22;8716;52.268;20.968;2024-02-04T09:37:42;8.00;99.90
17200;DHT22;8716;52.268;20.968;2024-02-04T09:40:12;8.00;99.90
17200;DHT22;8716;52.268;20.968;2024-02-04T09:42:40;8.00;99.90
17200;DHT22;8716;52.268;20.968;2024-02-04T09:45:09;8.00;99.90
17200;DHT22;8716;52.268;20.968;2024-02-04T09:47:39;8.00;99.90
17200;DHT22;8716;52.268;20.968;2024-02-04T09:50:09;8.00;99.90
17200;DHT22;8716;52.268;20.968;2024-02-04T09:52:40;7.90;99.90
17200;DHT22;8716;52.268;20.968;2024-02-04T09:55:10;7.90;99.90
17200;DHT22;8716;52.268;20.968;2024-02-04T09:57:41;8.00;99.90
17200;DHT22;8716;52.268;20.968;2024-02-04T10:00:10;8.00;99.90
17200;DHT22;8716;52.268;20.968;2024-02-04T10:02:41;8.00;99.90
17200;DHT22;8716;52.268;20.968;2024-02-04T10:05:09;8.00;99.90
17200;DHT22;8716;52.268;20.968;2024-02-04T10:07:39;8.10;99.90
17200;DHT22;8716;52.268;20.968;2024-02-04T10:10:09;8.10;99.90
17200;DHT22;8716;52.268;20.968;2024-02-04T10:12:39;8.00;99.90
17200;DHT22;8716;52.268;20.968;2024-02-04T10:15:09;8.10;99.90
17200;DHT22;8716;52.268;20.968;2024-02-04T10:17:42;8.10;99.90
17200;DHT22;8716;52.268;20.968;2024-02-04T10:20:10;8.10;99.90
17200;DHT22;8716;52.268;20.968;2024-02-04T10:22:44;8.20;99.90
17200;DHT22;8716;52.268;20.968;2024-02-04T10:25:12;8.20;99.90
17200;DHT22;8716;52.268;20.968;2024-02-04T10:27:43;8.20;99.90
17200;DHT22;8716;52.268;20.968;2024-02-04T10:30:13;8.20;99.90
17200;DHT22;8716;52.268;20.968;2024-02-04T10:32:42;8.20;99.90
17200;DHT22;8716;52.268;20.968;2024-02-04T10:35:11;8.20;99.90
17200;DHT22;8716;52.268;20.968;2024-02-04T10:37:40;8.30;99.90
17200;DHT22;8716;52.268;20.968;2024-02-04T10:40:10;8.30;99.90
17200;DHT22;8716;52.268;20.968;2024-02-04T10:42:42;8.20;99.90
17200;DHT22;8716;52.268;20.968;2024-02-04T10:45:11;8.20;99.90
17200;DHT22;8716;52.268;20.968;2024-02-04T10:47:41;8.30;99.90
17200;DHT22;8716;52.268;20.968;2024-02-04T10:50:14;8.20;99.90
17200;DHT22;8716;52.268;20.968;2024-02-04T10:52:46;8.20;99.90
17200;DHT22;8716;52.268;20.968;2024-02-04T10:55:17;8.20;99.90
17200;DHT22;8716;52.268;20.968;2024-02-04T10:57:51;8.30;99.90
17200;DHT22;8716;52.268;20.968;2024-02-04T11:00:20;8.30;99.90
17200;DHT22;8716;52.268;20.968;2024-02-04T11:02:49;8.30;99.90
17200;DHT22;8716;52.268;20.968;2024-02-04T11:05:21;8.20;99.90
17200;DHT22;8716;52.268;20.968;2024-02-04T11:07:51;8.20;99.90
17200;DHT22;8716;52.268;20.968;2024-02-04T11:10:22;8.10;99.90
17200;DHT22;8716;52.268;20.968;2024-02-04T11:12:53;8.20;99.90
17200;DHT22;8716;52.268;20.968;2024-02-04T11:15:26;8.20;99.90
17200;DHT22;8716;52.268;20.968;2024-02-04T11:18:23;8.20;99.90
17200;DHT22;8716;52.268;20.968;2024-02-04T11:21:10;8.20;99.90
17200;DHT22;8716;52.268;20.968;2024-02-04T11:23:54;8.10;99.90
17200;DHT22;8716;52.268;20.968;2024-02-04T11:26:28;8.00;99.90
17200;DHT22;8716;52.268;20.968;2024-02-04T11:28:57;8.00;99.90
17200;DHT22;8716;52.268;20.968;2024-02-04T11:31:28;8.00;99.90
17200;DHT22;8716;52.268;20.968;2024-02-04T11:33:57;8.00;99.90
17200;DHT22;8716;52.268;20.968;2024-02-04T11:36:26;7.90;99.90
17200;DHT22;8716;52.268;20.968;2024-02-04T11:38:55;8.00;99.90
17200;DHT22;8716;52.268;20.968;2024-02-04T11:41:24;7.90;99.90
17200;DHT22;8716;52.268;20.968;2024-02-04T11:43:56;7.90;99.90
17200;DHT22;8716;52.268;20.968;2024-02-04T11:46:29;7.90;99.90
17200;DHT22;8716;52.268;20.968;2024-02-04T11:49:00;7.80;99.90
17200;DHT22;8716;52.268;20.968;2024-02-04T11:51:29;7.80;99.90
17200;DHT22;8716;52.268;20.968;2024-02-04T11:53:58;7.70;99.90
17200;DHT22;8716;52.268;20.968;2024-02-04T11:56:31;7.60;99.90
17200;DHT22;8716;52.268;20.968;2024-02-04T11:59:02;7.60;99.90
17200;DHT22;8716;52.268;20.968;2024-02-04T12:01:31;7.60;99.90
17200;DHT22;8716;52.268;20.968;2024-02-04T12:04:09;7.50;99.90
17200;DHT22;8716;52.268;20.968;2024-02-04T12:06:39;7.50;99.90
17200;DHT22;8716;52.268;20.968;2024-02-04T12:09:08;7.50;99.90
17200;DHT22;8716;52.268;20.968;2024-02-04T12:11:37;7.40;99.90
17200;DHT22;8716;52.268;20.968;2024-02-04T12:14:08;7.50;99.90
17200;DHT22;8716;52.268;20.968;2024-02-04T12:16:36;7.50;99.90
17200;DHT22;8716;52.268;20.968;2024-02-04T12:19:07;7.40;99.90
17200;DHT22;8716;52.268;20.968;2024-02-04T12:21:35;7.40;99.90
17200;DHT22;8716;52.268;20.968;2024-02-04T12:24:07;7.40;99.90
17200;DHT22;8716;52.268;20.968;2024-02-04T12:26:35;7.50;99.90
17200;DHT22;8716;52.268;20.968;2024-02-04T12:29:04;7.50;99.90
17200;DHT22;8716;52.268;20.968;2024-02-04T12:31:34;7.50;99.90
17200;DHT22;8716;52.268;20.968;2024-02-04T12:34:04;7.50;99.90
17200;DHT22;8716;52.268;20.968;2024-02-04T12:36:33;7.50;99.90
17200;DHT22;8716;52.268;20.968;2024-02-04T12:39:02;7.60;99.90
17200;DHT22;8716;52.268;20.968;2024-02-04T12:41:31;7.60;99.90
17200;DHT22;8716;52.268;20.968;2024-02-04T12:44:00;7.60;99.90
17200;DHT22;8716;52.268;20.968;2024-02-04T12:46:30;7.50;99.90
17200;DHT22;8716;52.268;20.968;2024-02-04T12:49:00;7.60;99.90
17200;DHT22;8716;52.268;20.968;2024-02-04T12:51:33;7.60;99.90
17200;DHT22;8716;52.268;20.968;2024-02-04T12:54:05;7.60;99.90
17200;DHT22;8716;52.268;20.968;2024-02-04T12:56:41;7.60;99.90
17200;DHT22;8716;52.268;20.968;2024-02-04T12:59:10;7.60;99.90
17200;DHT22;8716;52.268;20.968;2024-02-04T13:01:38;7.70;99.90
17200;DHT22;8716;52.268;20.968;2024-02-04T13:04:08;7.70;99.90
17200;DHT22;8716;52.268;20.968;2024-02-04T13:06:40;7.80;99.90
17200;DHT22;8716;52.268;20.968;2024-02-04T13:09:08;7.80;99.90
17200;DHT22;8716;52.268;20.968;2024-02-04T13:11:36;7.70;99.90
17200;DHT22;8716;52.268;20.968;2024-02-04T13:14:05;7.60;99.90
17200;DHT22;8716;52.268;20.968;2024-02-04T13:16:33;7.60;99.90
17200;DHT22;8716;52.268;20.968;2024-02-04T13:19:03;7.60;99.90
17200;DHT22;8716;52.268;20.968;2024-02-04T13:21:35;7.60;99.90
17200;DHT22;8716;52.268;20.968;2024-02-04T13:24:04;7.60;99.90
17200;DHT22;8716;52.268;20.968;2024-02-04T13:26:32;7.60;99.90
17200;DHT22;8716;52.268;20.968;2024-02-04T13:29:00;7.60;99.90
17200;DHT22;8716;52.268;20.968;2024-02-04T13:31:30;7.60;99.90
17200;DHT22;8716;52.268;20.968;2024-02-04T13:34:01;7.60;99.90
17200;DHT22;8716;52.268;20.968;2024-02-04T13:36:32;7.60;99.90
17200;DHT22;8716;52.268;20.968;2024-02-04T13:39:02;7.60;99.90
17200;DHT22;8716;52.268;20.968;2024-02-04T13:41:32;7.60;99.90
17200;DHT22;8716;52.268;20.968;2024-02-04T13:44:00;7.60;99.90
17200;DHT22;8716;52.268;20.968;2024-02-04T13:46:30;7.60;99.90
17200;DHT22;8716;52.268;20.968;2024-02-04T13:48:59;7.60;99.90
17200;DHT22;8716;52.268;20.968;2024-02-04T13:51:27;7.60;99.90
17200;DHT22;8716;52.268;20.968;2024-02-04T13:54:11;7.60;99.90
17200;DHT22;8716;52.268;20.968;2024-02-04T13:56:46;7.70;99.90
17200;DHT22;8716;52.268;20.968;2024-02-04T13:59:15;7.70;99.90
17200;DHT22;8716;52.268;20.968;2024-02-04T14:01:43;7.70;99.90
17200;DHT22;8716;52.268;20.968;2024-02-04T14:04:11;7.70;99.90
17200;DHT22;8716;52.268;20.968;2024-02-04T14:06:40;7.70;99.90
17200;DHT22;8716;52.268;20.968;2024-02-04T14:09:08;7.60;99.90
17200;DHT22;8716;52.268;20.968;2024-02-04T14:11:41;7.70;99.90
17200;DHT22;8716;52.268;20.968;2024-02-04T14:14:09;7.60;99.90
17200;DHT22;8716;52.268;20.968;2024-02-04T14:16:37;7.70;99.90
17200;DHT22;8716;52.268;20.968;2024-02-04T14:19:08;7.70;99.90
17200;DHT22;8716;52.268;20.968;2024-02-04T14:21:37;7.70;99.90
17200;DHT22;8716;52.268;20.968;2024-02-04T14:24:08;7.60;99.90
17200;DHT22;8716;52.268;20.968;2024-02-04T14:26:36;7.60;99.90
17200;DHT22;8716;52.268;20.968;2024-02-04T14:29:07;7.60;99.90
17200;DHT22;8716;52.268;20.968;2024-02-04T14:31:39;7.70;99.90
17200;DHT22;8716;52.268;20.968;2024-02-04T14:34:07;7.70;99.90
17200;DHT22;8716;52.268;20.968;2024-02-04T14:36:37;7.70;99.90
17200;DHT22;8716;52.268;20.968;2024-02-04T14:39:06;7.70;99.90
17200;DHT22;8716;52.268;20.968;2024-02-04T14:41:35;7.70;99.90
17200;DHT22;8716;52.268;20.968;2024-02-04T14:44:05;7.70;99.90
17200;DHT22;8716;52.268;20.968;2024-02-04T14:46:35;7.70;99.90
17200;DHT22;8716;52.268;20.968;2024-02-04T14:49:05;7.70;99.90
17200;DHT22;8716;52.268;20.968;2024-02-04T14:51:33;7.80;99.90
17200;DHT22;8716;52.268;20.968;2024-02-04T14:54:03;7.80;99.90
17200;DHT22;8716;52.268;20.968;2024-02-04T14:56:37;7.80;99.90
17200;DHT22;8716;52.268;20.968;2024-02-04T14:59:09;7.80;99.90
17200;DHT22;8716;52.268;20.968;2024-02-04T15:01:49;7.90;99.90
17200;DHT22;8716;52.268;20.968;2024-02-04T15:04:18;7.90;99.90
17200;DHT22;8716;52.268;20.968;2024-02-04T15:06:47;7.90;99.90
17200;DHT22;8716;52.268;20.968;2024-02-04T15:09:15;7.90;99.90
17200;DHT22;8716;52.268;20.968;2024-02-04T15:11:47;7.90;99.90
17200;DHT22;8716;52.268;20.968;2024-02-04T15:14:18;7.90;99.90
17200;DHT22;8716;52.268;20.968;2024-02-04T15:16:46;7.90;99.90
17200;DHT22;8716;52.268;20.968;2024-02-04T15:19:15;7.90;99.90
17200;DHT22;8716;52.268;20.968;2024-02-04T15:21:44;7.90;99.90
17200;DHT22;8716;52.268;20.968;2024-02-04T15:24:13;7.90;99.90
17200;DHT22;8716;52.268;20.968;2024-02-04T15:26:43;7.90;99.90
17200;DHT22;8716;52.268;20.968;2024-02-04T15:29:13;7.90;99.90
17200;DHT22;8716;52.268;20.968;2024-02-04T15:31:44;7.90;99.90
17200;DHT22;8716;52.268;20.968;2024-02-04T15:34:14;8.00;99.90
17200;DHT22;8716;52.268;20.968;2024-02-04T15:36:42;7.90;99.90
17200;DHT22;8716;52.268;20.968;2024-02-04T15:39:11;8.00;99.90
17200;DHT22;8716;52.268;20.968;2024-02-04T15:41:39;8.00;99.90
17200;DHT22;8716;52.268;20.968;2024-02-04T15:44:07;8.00;99.90
17200;DHT22;8716;52.268;20.968;2024-02-04T15:46:36;8.00;99.90
17200;DHT22;8716;52.268;20.968;2024-02-04T15:49:07;8.00;99.90
17200;DHT22;8716;52.268;20.968;2024-02-04T15:51:40;7.90;99.90
17200;DHT22;8716;52.268;20.968;2024-02-04T15:54:08;7.90;99.90
17200;DHT22;8716;52.268;20.968;2024-02-04T15:56:41;7.90;99.90
17200;DHT22;8716;52.268;20.968;2024-02-04T15:59:13;7.90;99.90